createdAt,value
2018-04-17T00:02:06.410Z,16.80
2018-04-17T00:04:33.934Z,19.27
2018-04-17T00:07:02.229Z,21.00
2018-04-17T00:09:29.690Z,17.50
2018-04-17T00:11:57.197Z,16.30
2018-04-17T00:14:24.689Z,18.37
2018-04-17T00:16:52.216Z,21.30
2018-04-17T00:19:19.712Z,24.50
2018-04-17T00:21:47.221Z,30.03
2018-04-17T00:24:14.797Z,21.50
2018-04-17T00:26:42.342Z,20.03
2018-04-17T00:29:09.822Z,24.43
2018-04-17T00:31:37.316Z,23.93
2018-04-17T00:34:05.529Z,25.07
2018-04-17T00:36:33.007Z,20.10
2018-04-17T00:39:00.512Z,26.00
2018-04-17T00:41:27.999Z,22.47
2018-04-17T00:43:55.498Z,28.70
2018-04-17T00:46:23.726Z,18.97
2018-04-17T00:48:51.227Z,26.67
2018-04-17T00:51:19.470Z,26.23
2018-04-17T00:53:53.753Z,28.03
2018-04-17T00:56:21.242Z,27.00
2018-04-17T00:58:49.653Z,29.30
2018-04-17T01:01:17.121Z,29.00
2018-04-17T01:03:44.614Z,28.03
2018-04-17T01:06:12.231Z,31.33
2018-04-17T01:08:39.756Z,25.87
2018-04-17T01:11:07.240Z,29.13
2018-04-17T01:13:34.726Z,28.97
2018-04-17T01:16:02.972Z,27.47
2018-04-17T01:18:30.492Z,30.40
2018-04-17T01:20:57.991Z,21.53
2018-04-17T01:23:25.472Z,28.07
2018-04-17T01:25:53.724Z,23.50
2018-04-17T01:28:22.071Z,21.43
2018-04-17T01:30:49.560Z,24.80
2018-04-17T01:33:17.029Z,22.83
2018-04-17T01:35:45.279Z,25.17
2018-04-17T01:38:12.838Z,26.73
2018-04-17T01:40:40.346Z,29.10
2018-04-17T01:43:07.834Z,23.70
2018-04-17T01:45:35.339Z,25.97
2018-04-17T01:48:03.582Z,28.27
2018-04-17T01:50:31.079Z,24.37
2018-04-17T01:52:59.372Z,27.47
2018-04-17T01:58:01.553Z,29.03
2018-04-17T02:00:29.062Z,24.60
2018-04-17T02:02:57.145Z,34.70
2018-04-17T02:05:24.647Z,28.63
2018-04-17T02:07:52.985Z,31.80
2018-04-17T02:10:20.480Z,24.83
2018-04-17T02:12:48.738Z,25.03
2018-04-17T02:15:16.211Z,35.13
2018-04-17T02:17:44.449Z,33.40
2018-04-17T02:20:11.965Z,32.20
2018-04-17T02:22:39.443Z,33.83
2018-04-17T02:25:06.940Z,32.17
2018-04-17T02:27:34.464Z,35.57
2018-04-17T02:30:02.022Z,27.20
2018-04-17T02:32:29.504Z,35.53
2018-04-17T02:34:56.999Z,27.97
2018-04-17T02:37:24.607Z,35.43
2018-04-17T02:39:52.161Z,37.03
2018-04-17T02:42:19.711Z,37.83
2018-04-17T02:44:47.806Z,38.00
2018-04-17T02:47:15.325Z,37.30
2018-04-17T02:49:42.855Z,38.00
2018-04-17T02:52:10.373Z,48.07
2018-04-17T02:54:37.855Z,42.00
2018-04-17T02:57:05.346Z,43.73
2018-04-17T02:59:33.615Z,43.47
2018-04-17T03:02:01.982Z,43.90
2018-04-17T03:04:29.499Z,46.60
2018-04-17T03:06:57.057Z,45.30
2018-04-17T03:09:24.626Z,44.13
2018-04-17T03:11:52.426Z,51.03
2018-04-17T03:14:19.943Z,44.30
2018-04-17T03:16:47.448Z,45.07
2018-04-17T03:19:14.970Z,46.17
2018-04-17T03:21:42.468Z,45.20
2018-04-17T03:24:09.945Z,50.00
2018-04-17T03:26:38.205Z,48.73
2018-04-17T03:29:05.939Z,49.50
2018-04-17T03:31:33.602Z,54.13
2018-04-17T03:34:01.596Z,57.87
2018-04-17T03:36:29.429Z,50.70
2018-04-17T03:38:57.009Z,43.60
2018-04-17T03:41:24.695Z,47.37
2018-04-17T03:43:52.234Z,54.90
2018-04-17T03:46:20.441Z,53.10
2018-04-17T03:48:49.372Z,52.33
2018-04-17T03:51:16.877Z,54.70
2018-04-17T03:53:45.186Z,48.83
2018-04-17T03:56:12.977Z,56.67
2018-04-17T03:58:40.492Z,54.47
2018-04-17T04:01:07.993Z,59.13
2018-04-17T04:03:35.488Z,60.77
2018-04-17T04:06:03.000Z,62.60
2018-04-17T04:08:30.508Z,60.90
2018-04-17T04:10:58.000Z,56.70
2018-04-17T04:13:26.193Z,60.63
2018-04-17T04:15:53.716Z,64.53
2018-04-17T04:18:33.623Z,55.13
2018-04-17T04:21:13.085Z,57.90
2018-04-17T04:23:52.339Z,66.63
2018-04-17T04:26:28.800Z,64.77
2018-04-17T04:28:57.051Z,63.80
2018-04-17T04:31:24.537Z,63.93
2018-04-17T04:33:52.009Z,60.07
2018-04-17T04:36:19.509Z,54.80
2018-04-17T04:38:47.207Z,63.40
2018-04-17T04:41:14.732Z,58.53
2018-04-17T04:43:42.257Z,45.43
2018-04-17T04:46:09.748Z,42.53
2018-04-17T04:48:37.248Z,45.20
2018-04-17T04:51:04.723Z,39.20
2018-04-17T04:53:32.985Z,39.93
2018-04-17T04:56:01.260Z,28.53
2018-04-17T04:58:29.578Z,31.40
2018-04-17T05:00:57.087Z,32.83
2018-04-17T05:03:24.804Z,33.47
2018-04-17T05:05:52.391Z,30.57
2018-04-17T05:08:19.882Z,30.20
2018-04-17T05:10:48.434Z,29.23
2018-04-17T05:13:15.971Z,26.33
2018-04-17T05:15:43.457Z,35.17
2018-04-17T05:18:10.934Z,29.23
2018-04-17T05:20:39.230Z,31.40
2018-04-17T05:23:07.507Z,60.27
2018-04-17T05:25:35.772Z,39.43
2018-04-17T05:28:04.041Z,34.50
2018-04-17T05:30:32.300Z,30.07
2018-04-17T05:32:59.795Z,27.90
2018-04-17T05:35:27.326Z,29.37
2018-04-17T05:37:54.809Z,22.27
2018-04-17T05:40:23.063Z,21.60
2018-04-17T05:42:50.722Z,21.33
2018-04-17T05:45:18.401Z,19.33
2018-04-17T05:47:46.642Z,21.53
2018-04-17T05:50:14.183Z,18.40
2018-04-17T05:52:41.653Z,22.10
2018-04-17T05:55:09.156Z,22.87
2018-04-17T05:57:37.628Z,23.93
2018-04-17T06:00:05.313Z,17.77
2018-04-17T06:02:33.310Z,23.97
2018-04-17T06:05:01.125Z,19.80
2018-04-17T06:07:29.578Z,19.57
2018-04-17T06:09:57.177Z,19.37
2018-04-17T06:12:24.791Z,24.73
2018-04-17T06:14:52.294Z,21.83
2018-04-17T06:17:20.561Z,18.30
2018-04-17T06:19:48.042Z,19.93
2018-04-17T06:22:15.560Z,25.43
2018-04-17T06:24:43.046Z,20.50
2018-04-17T06:27:11.315Z,25.70
2018-04-17T06:29:38.829Z,23.10
2018-04-17T06:32:06.307Z,26.63
2018-04-17T06:34:33.786Z,23.83
2018-04-17T06:37:02.068Z,22.07
2018-04-17T06:39:29.630Z,22.87
2018-04-17T06:41:58.021Z,26.07
2018-04-17T06:44:25.668Z,24.03
2018-04-17T06:46:53.149Z,25.13
2018-04-17T06:49:20.671Z,25.07
2018-04-17T06:51:48.246Z,26.93
2018-04-17T06:54:15.745Z,23.83
2018-04-17T06:56:43.265Z,26.40
2018-04-17T06:59:11.529Z,25.93
2018-04-17T07:01:39.017Z,24.20
2018-04-17T07:04:06.682Z,26.93
2018-04-17T07:06:34.203Z,25.23
2018-04-17T07:09:02.474Z,24.90
2018-04-17T07:11:30.051Z,24.80
2018-04-17T07:13:57.585Z,23.93
2018-04-17T07:16:25.075Z,26.53
2018-04-17T07:18:52.567Z,23.93
2018-04-17T07:21:20.156Z,23.10
2018-04-17T07:23:47.786Z,24.53
2018-04-17T07:26:15.235Z,23.57
2018-04-17T07:28:42.756Z,23.57
2018-04-17T07:31:10.239Z,25.77
2018-04-17T07:33:37.834Z,25.83
2018-04-17T07:36:09.317Z,25.80
2018-04-17T07:38:36.907Z,29.00
2018-04-17T07:41:05.142Z,27.27
2018-04-17T07:43:32.649Z,28.80
2018-04-17T07:46:01.020Z,28.33
2018-04-17T07:48:40.520Z,27.80
2018-04-17T07:51:08.259Z,30.07
2018-04-17T07:53:36.045Z,29.33
2018-04-17T07:56:03.834Z,32.37
2018-04-17T07:58:31.693Z,29.33
2018-04-17T08:00:59.186Z,31.93
2018-04-17T08:03:27.509Z,32.50
2018-04-17T08:05:55.035Z,28.10
2018-04-17T08:08:22.521Z,26.33
2018-04-17T08:10:50.020Z,24.03
2018-04-17T08:13:17.560Z,21.60
2018-04-17T08:15:45.123Z,23.37
2018-04-17T08:18:12.642Z,26.47
2018-04-17T08:20:40.171Z,23.37
2018-04-17T08:23:07.954Z,24.43
2018-04-17T08:25:35.472Z,22.53
2018-04-17T08:28:02.958Z,23.07
2018-04-17T08:30:31.262Z,28.17
2018-04-17T08:32:58.763Z,22.87
2018-04-17T08:35:26.259Z,22.73
2018-04-17T08:37:54.495Z,21.00
2018-04-17T08:40:22.475Z,21.83
2018-04-17T08:42:50.893Z,23.07
2018-04-17T08:45:19.147Z,18.27
2018-04-17T08:47:46.622Z,23.13
2018-04-17T08:50:14.886Z,26.90
2018-04-17T08:52:42.400Z,24.00
2018-04-17T08:55:09.898Z,27.10
2018-04-17T08:57:38.262Z,25.77
2018-04-17T09:00:05.759Z,27.63
2018-04-17T09:02:34.014Z,23.43
2018-04-17T09:05:02.302Z,26.37
2018-04-17T09:07:30.636Z,23.60
2018-04-17T09:09:58.114Z,28.57
2018-04-17T09:12:25.638Z,27.00
2018-04-17T09:14:53.115Z,26.60
2018-04-17T09:17:20.626Z,23.77
2018-04-17T09:19:48.135Z,23.40
2018-04-17T09:22:15.771Z,21.23
2018-04-17T09:24:43.238Z,21.50
2018-04-17T09:27:10.727Z,17.37
2018-04-17T09:29:38.238Z,11.73
2018-04-17T09:32:05.825Z,12.23
2018-04-17T09:34:33.481Z,15.63
2018-04-17T09:37:01.182Z,15.10
2018-04-17T09:39:29.669Z,11.73
2018-04-17T09:41:58.082Z,14.90
2018-04-17T09:44:25.592Z,9.93
2018-04-17T09:46:53.106Z,10.40
2018-04-17T09:49:20.629Z,11.87
2018-04-17T09:51:48.858Z,17.10
2018-04-17T09:54:16.341Z,14.87
2018-04-17T09:56:43.834Z,19.57
2018-04-17T09:59:11.362Z,17.97
2018-04-17T10:01:38.851Z,13.73
2018-04-17T10:04:06.356Z,15.23
2018-04-17T10:06:33.877Z,18.17
2018-04-17T10:09:02.251Z,15.00
2018-04-17T10:11:29.692Z,17.27
2018-04-17T10:13:57.951Z,17.87
2018-04-17T10:16:25.435Z,20.90
2018-04-17T10:18:53.763Z,21.33
2018-04-17T10:21:21.346Z,19.37
2018-04-17T10:23:48.857Z,15.97
2018-04-17T10:26:16.372Z,17.27
2018-04-17T10:28:43.876Z,19.20
2018-04-17T10:31:11.376Z,17.13
2018-04-17T10:33:39.051Z,18.20
2018-04-17T10:36:06.519Z,14.60
2018-04-17T10:38:34.821Z,15.57
2018-04-17T10:41:02.431Z,14.87
2018-04-17T10:43:29.978Z,13.90
2018-04-17T10:45:57.503Z,14.53
2018-04-17T10:48:25.050Z,17.60
2018-04-17T10:50:53.285Z,15.13
2018-04-17T10:53:20.783Z,16.27
2018-04-17T10:55:49.083Z,12.87
2018-04-17T10:58:16.571Z,15.57
2018-04-17T11:00:44.031Z,21.30
2018-04-17T11:03:11.585Z,15.67
2018-04-17T11:05:39.090Z,14.60
2018-04-17T11:08:07.735Z,15.27
2018-04-17T11:10:35.237Z,14.77
2018-04-17T11:13:03.668Z,18.50
2018-04-17T11:15:31.133Z,18.90
2018-04-17T11:17:58.630Z,18.10
2018-04-17T11:20:26.953Z,16.83
2018-04-17T11:22:54.464Z,17.07
2018-04-17T11:25:22.724Z,20.07
2018-04-17T11:27:50.296Z,17.10
2018-04-17T11:30:17.796Z,21.37
2018-04-17T11:32:45.273Z,20.37
2018-04-17T11:35:12.766Z,19.10
2018-04-17T11:37:40.308Z,17.97
2018-04-17T11:40:07.797Z,17.37
2018-04-17T11:42:36.047Z,17.23
2018-04-17T11:45:03.561Z,16.17
2018-04-17T11:47:31.097Z,19.23
2018-04-17T11:49:59.761Z,17.87
2018-04-17T11:52:27.663Z,17.93
2018-04-17T11:54:55.167Z,16.07
2018-04-17T11:57:22.642Z,16.80
2018-04-17T11:59:50.181Z,19.30
2018-04-17T12:02:17.805Z,16.70
2018-04-17T12:04:45.309Z,16.10
2018-04-17T12:07:12.827Z,15.87
2018-04-17T12:09:40.308Z,20.00
2018-04-17T12:12:07.832Z,17.70
2018-04-17T12:14:35.329Z,15.77
2018-04-17T12:17:02.823Z,15.47
2018-04-17T12:19:31.069Z,18.17
2018-04-17T12:21:58.631Z,15.33
2018-04-17T12:24:26.877Z,14.47
2018-04-17T12:26:54.423Z,18.00
2018-04-17T12:29:23.819Z,14.13
2018-04-17T12:31:52.060Z,13.83
2018-04-17T12:34:19.564Z,12.73
2018-04-17T12:36:47.062Z,13.70
2018-04-17T12:39:14.552Z,13.40
2018-04-17T12:41:42.869Z,14.47
2018-04-17T12:44:10.384Z,14.13
2018-04-17T12:46:37.868Z,12.37
2018-04-17T12:49:05.410Z,14.00
2018-04-17T12:51:33.634Z,13.40
2018-04-17T12:54:01.125Z,8.70
2018-04-17T12:56:28.628Z,13.53
2018-04-17T12:58:56.157Z,14.27
2018-04-17T13:01:23.744Z,12.27
2018-04-17T13:03:51.240Z,13.90
2018-04-17T13:06:18.768Z,14.80
2018-04-17T13:08:46.267Z,18.07
2018-04-17T13:11:13.849Z,12.80
2018-04-17T13:13:41.360Z,12.40
2018-04-17T13:16:08.879Z,13.03
2018-04-17T13:18:37.124Z,13.20
2018-04-17T13:21:04.719Z,12.60
2018-04-17T13:23:33.567Z,15.10
2018-04-17T13:26:01.144Z,11.07
2018-04-17T13:28:28.736Z,15.37
2018-04-17T13:30:57.064Z,13.37
2018-04-17T13:33:24.595Z,15.03
2018-04-17T13:35:52.113Z,10.60
2018-04-17T13:38:19.679Z,16.50
2018-04-17T13:40:47.215Z,14.00
2018-04-17T13:43:15.639Z,16.20
2018-04-17T13:45:43.917Z,13.23
2018-04-17T13:48:11.424Z,15.27
2018-04-17T13:50:39.706Z,15.53
2018-04-17T13:53:07.186Z,18.10
2018-04-17T13:55:35.482Z,15.37
2018-04-17T13:58:03.756Z,15.47
2018-04-17T14:00:32.108Z,13.20
2018-04-17T14:02:59.605Z,16.03
2018-04-17T14:05:27.102Z,16.10
2018-04-17T14:07:54.825Z,15.43
2018-04-17T14:10:23.074Z,17.07
2018-04-17T14:12:51.362Z,13.43
2018-04-17T14:15:19.684Z,12.87
2018-04-17T14:17:48.019Z,11.03
2018-04-17T14:20:16.280Z,12.63
2018-04-17T14:22:43.786Z,12.17
2018-04-17T14:25:11.934Z,17.30
2018-04-17T14:27:40.188Z,12.67
2018-04-17T14:30:07.680Z,14.30
2018-04-17T14:32:35.180Z,14.40
2018-04-17T14:35:02.642Z,15.10
2018-04-17T14:37:30.149Z,14.77
2018-04-17T14:39:58.418Z,15.17
2018-04-17T14:42:26.751Z,16.20
2018-04-17T14:44:54.249Z,11.67
2018-04-17T14:47:22.486Z,11.17
2018-04-17T14:49:49.991Z,16.17
2018-04-17T14:52:18.302Z,14.67
2018-04-17T14:54:45.822Z,14.23
2018-04-17T14:57:14.071Z,17.00
2018-04-17T14:59:41.568Z,14.67
2018-04-17T15:02:09.052Z,13.50
2018-04-17T15:04:36.556Z,10.90
2018-04-17T15:07:04.030Z,15.40
2018-04-17T15:09:32.344Z,19.23
2018-04-17T15:11:59.854Z,15.43
2018-04-17T15:14:27.363Z,15.50
2018-04-17T15:16:54.871Z,13.07
2018-04-17T15:19:22.444Z,11.80
2018-04-17T15:21:50.733Z,10.60
2018-04-17T15:24:18.226Z,17.80
2018-04-17T15:26:45.715Z,14.13
2018-04-17T15:29:13.375Z,16.17
2018-04-17T15:31:40.839Z,12.63
2018-04-17T15:34:08.351Z,12.77
2018-04-17T15:36:35.861Z,13.63
2018-04-17T15:39:03.376Z,12.67
2018-04-17T15:41:30.894Z,15.73
2018-04-17T15:43:59.241Z,15.20
2018-04-17T15:46:26.771Z,16.77
2018-04-17T15:48:54.336Z,12.40
2018-04-17T15:51:21.865Z,13.97
2018-04-17T15:53:50.120Z,12.17
2018-04-17T15:56:17.972Z,14.23
2018-04-17T15:58:45.446Z,13.77
2018-04-17T16:01:13.812Z,14.87
2018-04-17T16:03:41.586Z,15.00
2018-04-17T16:06:09.223Z,11.47
2018-04-17T16:08:36.719Z,11.73
2018-04-17T16:11:05.818Z,13.23
2018-04-17T16:13:34.635Z,13.50
2018-04-17T16:16:02.249Z,13.73
2018-04-17T16:18:30.554Z,12.47
2018-04-17T16:20:58.103Z,13.47
2018-04-17T16:23:26.397Z,15.37
2018-04-17T16:25:53.925Z,15.10
2018-04-17T16:28:21.535Z,13.53
2018-04-17T16:30:49.313Z,15.00
2018-04-17T16:33:16.819Z,16.33
2018-04-17T16:35:45.071Z,13.27
2018-04-17T16:38:12.590Z,15.40
2018-04-17T16:40:40.380Z,11.77
2018-04-17T16:43:07.913Z,12.53
2018-04-17T16:45:35.389Z,9.80
2018-04-17T16:48:02.891Z,13.37
2018-04-17T16:50:31.210Z,14.57
2018-04-17T16:52:58.731Z,12.57
2018-04-17T16:55:27.058Z,11.87
2018-04-17T16:57:59.013Z,13.93
2018-04-17T17:00:26.553Z,15.53
2018-04-17T17:02:54.175Z,17.00
2018-04-17T17:05:21.776Z,16.73
2018-04-17T17:07:49.236Z,15.03
2018-04-17T17:10:16.810Z,15.47
2018-04-17T17:12:44.760Z,13.33
2018-04-17T17:15:12.345Z,17.73
2018-04-17T17:17:39.950Z,15.63
2018-04-17T17:20:08.234Z,13.33
2018-04-17T17:22:36.478Z,12.93
2018-04-17T17:25:04.058Z,14.57
2018-04-17T17:27:31.688Z,12.87
2018-04-17T17:29:59.441Z,13.90
2018-04-17T17:32:26.970Z,13.03
2018-04-17T17:34:54.428Z,12.87
2018-04-17T17:37:22.746Z,17.50
2018-04-17T17:39:50.664Z,12.70
2018-04-17T17:42:19.029Z,25.17
2018-04-17T17:44:46.666Z,16.10
2018-04-17T17:47:14.240Z,17.07
2018-04-17T17:49:42.483Z,14.43
2018-04-17T17:52:11.070Z,16.10
2018-04-17T17:54:38.593Z,20.03
2018-04-17T17:57:07.882Z,22.77
2018-04-17T17:59:35.558Z,25.17
2018-04-17T18:02:04.166Z,26.90
2018-04-17T18:04:32.140Z,19.70
2018-04-17T18:06:59.750Z,22.83
2018-04-17T18:09:27.265Z,16.37
2018-04-17T18:11:54.808Z,12.77
2018-04-17T18:14:22.317Z,18.80
2018-04-17T18:16:49.828Z,15.63
2018-04-17T18:19:17.348Z,14.47
2018-04-17T18:21:45.694Z,16.27
2018-04-17T18:24:13.203Z,17.80
2018-04-17T18:26:41.503Z,22.00
2018-04-17T18:29:09.044Z,15.03
2018-04-17T18:31:37.298Z,17.07
2018-04-17T18:34:04.809Z,17.40
2018-04-17T18:36:32.512Z,16.23
2018-04-17T18:39:00.099Z,16.73
2018-04-17T18:41:28.410Z,17.47
2018-04-17T18:43:55.931Z,18.33
2018-04-17T18:46:24.213Z,20.27
2018-04-17T18:48:52.510Z,17.67
2018-04-17T18:51:20.031Z,17.70
2018-04-17T18:53:47.549Z,19.30
2018-04-17T18:56:15.025Z,17.97
2018-04-17T18:58:42.571Z,14.63
2018-04-17T19:01:10.066Z,23.40
2018-04-17T19:03:37.630Z,18.00
2018-04-17T19:06:06.004Z,19.40
2018-04-17T19:08:33.581Z,20.63
2018-04-17T19:11:01.134Z,17.07
2018-04-17T19:13:29.390Z,15.87
2018-04-17T19:15:56.880Z,16.70
2018-04-17T19:18:25.204Z,20.57
2018-04-17T19:20:52.730Z,17.13
2018-04-17T19:23:20.226Z,17.50
2018-04-17T19:25:47.791Z,15.90
2018-04-17T19:28:15.252Z,20.67
2018-04-17T19:30:43.094Z,22.23
2018-04-17T19:33:23.359Z,15.30
2018-04-17T19:35:52.932Z,17.70
2018-04-17T19:38:22.763Z,16.80
2018-04-17T19:40:51.508Z,38.10
2018-04-17T19:43:19.293Z,50.93
2018-04-17T19:45:47.129Z,32.53
2018-04-17T19:48:14.815Z,31.00
2018-04-17T19:50:43.171Z,30.10
2018-04-17T19:53:10.670Z,24.03
2018-04-17T19:55:38.188Z,19.83
2018-04-17T19:58:05.678Z,19.47
2018-04-17T20:00:33.978Z,14.33
2018-04-17T20:03:01.494Z,16.37
2018-04-17T20:05:28.998Z,16.27
2018-04-17T20:07:56.500Z,16.80
2018-04-17T20:10:24.109Z,16.53
2018-04-17T20:15:39.701Z,16.57
2018-04-17T20:18:07.182Z,17.40
2018-04-17T20:20:34.729Z,16.20
2018-04-17T20:23:02.204Z,16.07
2018-04-17T20:25:29.719Z,25.70
2018-04-17T20:27:57.991Z,16.10
2018-04-17T20:30:25.496Z,16.67
2018-04-17T20:32:53.042Z,16.43
2018-04-17T20:35:20.608Z,17.57
2018-04-17T20:37:48.099Z,20.77
2018-04-17T20:40:15.740Z,20.63
2018-04-17T20:42:43.332Z,20.17
2018-04-17T20:45:12.121Z,19.10
2018-04-17T20:47:39.693Z,16.47
2018-04-17T20:50:07.239Z,20.10
2018-04-17T20:52:34.944Z,22.60
2018-04-17T20:55:03.237Z,23.63
2018-04-17T20:57:30.832Z,26.77
2018-04-17T20:59:58.407Z,22.20
2018-04-17T21:02:25.912Z,21.67
2018-04-17T21:04:53.507Z,22.53
2018-04-17T21:07:21.052Z,30.87
2018-04-17T21:09:48.855Z,31.13
2018-04-17T21:12:16.415Z,21.50
2018-04-17T21:14:44.833Z,20.40
2018-04-17T21:17:12.558Z,19.97
2018-04-17T21:19:43.010Z,25.20
2018-04-17T21:22:10.880Z,25.40
2018-04-17T21:24:38.636Z,22.97
2018-04-17T21:27:06.179Z,21.23
2018-04-17T21:29:34.197Z,32.03
2018-04-17T21:32:01.791Z,22.27
2018-04-17T21:34:30.206Z,21.30
2018-04-17T21:36:57.775Z,23.63
2018-04-17T21:39:26.234Z,24.33
2018-04-17T21:41:54.051Z,18.43
2018-04-17T21:44:22.310Z,19.40
2018-04-17T21:46:49.844Z,22.33
2018-04-17T21:49:18.181Z,27.10
2018-04-17T21:51:45.764Z,20.23
2018-04-17T21:54:13.325Z,25.23
2018-04-17T21:56:41.524Z,24.60
2018-04-17T21:59:09.972Z,20.50
2018-04-17T22:01:37.639Z,23.57
2018-04-17T22:04:05.222Z,23.17
2018-04-17T22:06:33.595Z,27.30
2018-04-17T22:09:01.101Z,19.37
2018-04-17T22:11:28.722Z,21.17
2018-04-17T22:13:56.991Z,21.93
2018-04-17T22:16:25.232Z,22.53
2018-04-17T22:18:52.736Z,23.27
2018-04-17T22:21:21.029Z,25.10
2018-04-17T22:23:48.632Z,20.97
2018-04-17T22:26:16.120Z,21.47
2018-04-17T22:28:43.691Z,18.90
2018-04-17T22:31:11.225Z,23.60
2018-04-17T22:33:39.516Z,16.20
2018-04-17T22:36:11.285Z,23.23
2018-04-17T22:38:39.830Z,20.53
2018-04-17T22:41:08.026Z,20.80
2018-04-17T22:43:35.775Z,20.67
2018-04-17T22:46:03.424Z,20.23
2018-04-17T22:48:31.136Z,20.53
2018-04-17T22:50:58.964Z,20.87
2018-04-17T22:53:26.442Z,19.43
2018-04-17T22:55:53.982Z,20.43
2018-04-17T22:58:21.478Z,19.77
2018-04-17T23:00:49.016Z,19.80
2018-04-17T23:03:16.525Z,16.80
2018-04-17T23:05:44.025Z,18.03
2018-04-17T23:08:11.491Z,18.27
2018-04-17T23:10:39.018Z,26.93
2018-04-17T23:13:06.554Z,16.30
2018-04-17T23:15:34.051Z,21.93
2018-04-17T23:18:02.315Z,17.60
2018-04-17T23:20:29.823Z,25.53
2018-04-17T23:22:57.335Z,26.33
2018-04-17T23:25:24.829Z,23.17
2018-04-17T23:27:52.439Z,19.07
2018-04-17T23:30:19.961Z,21.43
2018-04-17T23:32:48.249Z,20.40
2018-04-17T23:35:16.524Z,17.53
2018-04-17T23:37:44.177Z,18.27
2018-04-17T23:40:12.519Z,15.97
2018-04-17T23:42:40.014Z,16.43
2018-04-17T23:45:08.278Z,17.83
2018-04-17T23:47:35.838Z,18.57
2018-04-17T23:50:03.340Z,19.77
2018-04-17T23:52:31.570Z,16.80
2018-04-17T23:54:59.053Z,17.87
2018-04-17T23:57:27.341Z,16.40
2018-04-17T23:59:54.849Z,25.20
